Time;durP1;ratioP1;P1;durP2;ratioP2;P2;SDS_P1;SDS_P2;PMS_P1;PMS_P2;Temp;Humidity;BMP_temperature;BMP_pressure;BME280_temperature;BME280_humidity;BME280_pressure;Samples;Min_cycle;Max_cycle;Signal;HPM_P1;HPM_P2
2023/12/08 00:01:08;;;;;;;42.65;16.15;;;;;;;;;;5044456;28;20219;-76
2023/12/08 00:03:34;;;;;;;44.50;15.95;;;;;;;;;;5044712;28;20487;-76
2023/12/08 00:05:59;;;;;;;47.17;16.60;;;;;;;;;;5045647;28;20024;-77
2023/12/08 00:08:25;;;;;;;44.10;16.45;;;;;;;;;;5051411;28;20071;-77
2023/12/08 00:10:50;;;;;;;40.42;15.85;;;;;;;;;;5045474;28;20108;-76
2023/12/08 00:13:16;;;;;;;;;;;;;;;;;;5052005;28;20025;-77
2023/12/08 00:15:41;;;;;;;37.33;14.85;;;;;;;;;;5041251;28;20387;-77
2023/12/08 00:18:06;;;;;;;;;;;;;;;;;;5041678;28;20029;-76
2023/12/08 00:20:32;;;;;;;39.55;16.05;;;;;;;;;;5039112;28;19908;-76
2023/12/08 00:22:57;;;;;;;38.75;16.67;;;;;;;;;;5049443;28;20083;-76
2023/12/08 00:25:23;;;;;;;49.40;17.10;;;;;;;;;;5047654;28;20025;-78
2023/12/08 00:27:48;;;;;;;43.42;16.75;;;;;;;;;;5040759;28;20047;-77
2023/12/08 00:30:14;;;;;;;47.33;16.58;;;;;;;;;;5024720;28;20075;-76
2023/12/08 00:32:39;;;;;;;42.30;18.23;;;;;;;;;;5046085;28;20084;-77
2023/12/08 00:35:05;;;;;;;46.88;16.83;;;;;;;;;;5049853;28;20049;-77
2023/12/08 00:37:30;;;;;;;45.65;17.27;;;;;;;;;;5052174;28;20068;-77
2023/12/08 00:39:56;;;;;;;45.75;18.60;;;;;;;;;;5052922;28;20043;-76
2023/12/08 00:42:21;;;;;;;43.60;18.38;;;;;;;;;;5053308;28;20067;-76
2023/12/08 00:44:46;;;;;;;;;;;;;;;;;;5053355;28;20030;-76
2023/12/08 00:47:12;;;;;;;52.80;17.45;;;;;;;;;;5070760;28;19916;-76
2023/12/08 00:49:37;;;;;;;51.25;17.67;;;;;;;;;;5052696;28;20035;-77
2023/12/08 00:52:03;;;;;;;;;;;;;;;;;;5036710;28;20028;-77
2023/12/08 00:54:28;;;;;;;48.65;17.92;;;;;;;;;;5070624;28;19960;-76
2023/12/08 00:56:53;;;;;;;;;;;;;;;;;;5053662;28;20523;-77
2023/12/08 00:59:19;;;;;;;46.72;18.58;;;;;;;;;;5070637;28;19915;-76
2023/12/08 01:01:45;;;;;;;44.88;18.25;;;;;;;;;;5073392;28;20041;-77
2023/12/08 01:04:10;;;;;;;;;;;;;;;;;;5053779;28;20032;-76
2023/12/08 01:06:36;;;;;;;43.10;18.35;;;;;;;;;;5073531;28;19947;-76
2023/12/08 01:09:01;;;;;;;47.33;18.80;;;;;;;;;;5036433;28;20375;-76
2023/12/08 01:11:27;;;;;;;47.53;17.45;;;;;;;;;;5073754;28;20044;-76
2023/12/08 01:13:52;;;;;;;;;;;;;;;;;;5057109;28;20395;-76
2023/12/08 01:16:17;;;;;;;45.55;16.92;;;;;;;;;;5073843;28;19916;-76
2023/12/08 01:18:43;;;;;;;;;;;;;;;;;;5074617;28;20406;-77
2023/12/08 01:21:08;;;;;;;50.17;17.58;;;;;;;;;;5073849;28;19916;-76
2023/12/08 01:23:33;;;;;;;45.53;17.35;;;;;;;;;;5055938;28;20032;-76
2023/12/08 01:25:59;;;;;;;;;;;;;;;;;;5073129;28;20039;-76
2023/12/08 01:28:24;;;;;;;43.30;16.35;;;;;;;;;;5066609;28;19912;-77
2023/12/08 01:30:50;;;;;;;;;;;;;;;;;;5056490;28;20032;-77
2023/12/08 01:33:15;;;;;;;38.17;15.93;;;;;;;;;;5055839;28;19908;-77
2023/12/08 01:35:41;;;;;;;40.47;16.98;;;;;;;;;;5055812;28;20094;-76
2023/12/08 01:38:06;;;;;;;;;;;;;;;;;;5052608;28;20045;-76
2023/12/08 01:40:32;;;;;;;42.58;16.90;;;;;;;;;;5071513;28;19932;-77
2023/12/08 01:42:57;;;;;;;39.97;17.00;;;;;;;;;;5073669;28;20410;-77
2023/12/08 01:45:22;;;;;;;40.35;16.05;;;;;;;;;;5055020;28;20048;-75
2023/12/08 01:47:49;;;;;;;36.20;15.77;;;;;;;;;;5047429;28;20064;-76
2023/12/08 01:50:14;;;;;;;38.05;16.00;;;;;;;;;;5057428;28;20035;-78
2023/12/08 01:52:40;;;;;;;36.55;15.70;;;;;;;;;;5055992;28;20099;-76
2023/12/08 01:55:05;;;;;;;;;;;;;;;;;;5036714;28;20032;-76
2023/12/08 01:57:31;;;;;;;33.33;14.60;;;;;;;;;;5073269;28;20365;-77
2023/12/08 01:59:56;;;;;;;38.85;15.68;;;;;;;;;;5038474;28;20024;-76
2023/12/08 02:02:22;;;;;;;35.45;16.23;;;;;;;;;;5045830;28;20039;-76
2023/12/08 02:04:48;;;;;;;33.80;15.30;;;;;;;;;;5061778;28;20040;-77
2023/12/08 02:07:14;;;;;;;;;;;;;;;;;;5055542;28;20024;-77
2023/12/08 02:09:39;;;;;;;36.05;15.70;;;;;;;;;;5071468;28;20275;-77
2023/12/08 02:12:05;;;;;;;35.70;15.48;;;;;;;;;;5054984;28;20036;-76
2023/12/08 02:14:30;;;;;;;34.45;15.63;;;;;;;;;;5054985;28;20028;-77
2023/12/08 02:17:00;;;;;;;37.80;15.15;;;;;;;;;;5045297;28;20060;-76
2023/12/08 02:19:25;;;;;;;38.67;15.45;;;;;;;;;;5054919;28;20048;-75
2023/12/08 02:21:51;;;;;;;36.25;15.38;;;;;;;;;;5038239;28;20386;-77
2023/12/08 02:24:19;;;;;;;39.85;16.30;;;;;;;;;;5072558;28;20510;-77
2023/12/08 02:26:45;;;;;;;33.92;14.57;;;;;;;;;;5038366;28;20028;-77
2023/12/08 02:29:11;;;;;;;35.50;17.30;;;;;;;;;;5054909;28;20040;-77
2023/12/08 02:31:39;;;;;;;35.03;15.50;;;;;;;;;;5072933;28;20037;-76
2023/12/08 02:34:05;;;;;;;38.40;17.13;;;;;;;;;;5041649;28;20108;-77
2023/12/08 02:36:30;;;;;;;37.63;16.50;;;;;;;;;;5039475;28;20135;-76
2023/12/08 02:38:56;;;;;;;37.70;16.77;;;;;;;;;;5054853;28;20115;-76
2023/12/08 02:41:21;;;;;;;46.35;17.60;;;;;;;;;;5046075;28;20764;-76
2023/12/08 02:43:47;;;;;;;62.40;17.92;;;;;;;;;;5030476;28;20064;-76
2023/12/08 02:46:12;;;;;;;44.08;19.73;;;;;;;;;;5054563;28;20020;-76
2023/12/08 02:48:38;;;;;;;48.50;17.15;;;;;;;;;;5054094;28;20040;-76
2023/12/08 02:51:03;;;;;;;;;;;;;;;;;;5045222;28;20440;-76
2023/12/08 02:53:29;;;;;;;41.75;16.75;;;;;;;;;;5069822;28;20329;-77
2023/12/08 02:55:54;;;;;;;40.28;17.10;;;;;;;;;;5054195;28;20486;-76
2023/12/08 02:58:20;;;;;;;51.08;19.52;;;;;;;;;;5072347;28;20517;-76
2023/12/08 03:00:45;;;;;;;47.95;19.48;;;;;;;;;;5054254;28;20032;-77
2023/12/08 03:03:11;;;;;;;51.25;19.77;;;;;;;;;;5053997;28;20159;-77
2023/12/08 03:05:36;;;;;;;43.42;19.05;;;;;;;;;;5055399;28;20028;-77
2023/12/08 03:08:01;;;;;;;43.63;19.27;;;;;;;;;;5071833;28;20498;-77
2023/12/08 03:10:27;;;;;;;44.78;19.52;;;;;;;;;;5068107;28;20029;-77
2023/12/08 03:12:52;;;;;;;45.22;17.92;;;;;;;;;;5065424;28;20029;-77
2023/12/08 03:15:18;;;;;;;;;;;;;;;;;;5047528;28;20692;-77
2023/12/08 03:17:43;;;;;;;42.92;18.00;;;;;;;;;;5070250;28;19974;-77
2023/12/08 03:20:09;;;;;;;;;;;;;;;;;;5034252;28;20028;-77
2023/12/08 03:22:34;;;;;;;46.53;20.25;;;;;;;;;;5069143;28;19919;-77
2023/12/08 03:24:59;;;;;;;46.50;20.27;;;;;;;;;;5062543;28;20024;-77
2023/12/08 03:27:25;;;;;;;47.15;19.35;;;;;;;;;;5037068;28;20408;-76
2023/12/08 03:29:50;;;;;;;49.00;20.15;;;;;;;;;;5072205;28;20020;-76
2023/12/08 03:32:16;;;;;;;48.30;19.30;;;;;;;;;;5053588;28;20028;-77
2023/12/08 03:34:41;;;;;;;46.80;19.30;;;;;;;;;;5036961;28;20020;-76
2023/12/08 03:37:07;;;;;;;;;;;;;;;;;;5053908;28;20111;-76
2023/12/08 03:39:32;;;;;;;44.05;18.05;;;;;;;;;;5071248;28;19919;-76
2023/12/08 03:41:57;;;;;;;46.63;18.83;;;;;;;;;;5053504;28;20131;-76
2023/12/08 03:44:23;;;;;;;;;;;;;;;;;;5054355;28;20475;-76
2023/12/08 03:46:48;;;;;;;46.35;18.52;;;;;;;;;;5053402;28;19916;-77
2023/12/08 03:49:14;;;;;;;50.08;18.92;;;;;;;;;;5054114;28;20028;-77
2023/12/08 03:51:39;;;;;;;43.05;16.95;;;;;;;;;;5072183;28;20509;-77
2023/12/08 03:54:04;;;;;;;;;;;;;;;;;;5027167;28;20081;-77
2023/12/08 03:56:30;;;;;;;38.33;16.00;;;;;;;;;;5071675;28;19919;-77
2023/12/08 03:58:55;;;;;;;;;;;;;;;;;;5028893;28;20035;-77
2023/12/08 04:01:21;;;;;;;41.70;17.42;;;;;;;;;;5071361;28;19916;-78
2023/12/08 04:03:46;;;;;;;;;;;;;;;;;;5071888;28;20029;-77
2023/12/08 04:06:12;;;;;;;41.15;17.52;;;;;;;;;;5053376;28;19919;-77
2023/12/08 04:08:37;;;;;;;;;;;;;;;;;;5053937;28;20543;-77
2023/12/08 04:11:03;;;;;;;40.85;17.83;;;;;;;;;;5080404;28;19919;-77
2023/12/08 04:13:28;;;;;;;43.58;17.27;;;;;;;;;;5052400;28;20115;-77
2023/12/08 04:15:54;;;;;;;;;;;;;;;;;;5080751;28;20036;-77
2023/12/08 04:18:19;;;;;;;43.42;18.23;;;;;;;;;;5071289;28;20410;-76
2023/12/08 04:20:45;;;;;;;41.80;17.25;;;;;;;;;;5071259;28;20032;-76
2023/12/08 04:23:10;;;;;;;;;;;;;;;;;;5053567;28;20528;-77
2023/12/08 04:25:35;;;;;;;42.88;16.85;;;;;;;;;;5053102;28;19912;-76
2023/12/08 04:28:01;;;;;;;39.25;17.13;;;;;;;;;;5053591;28;20085;-76
2023/12/08 04:30:27;;;;;;;;;;;;;;;;;;5052494;28;20029;-75
2023/12/08 04:32:52;;;;;;;44.30;17.57;;;;;;;;;;5068935;28;20371;-75
2023/12/08 04:35:18;;;;;;;38.35;17.88;;;;;;;;;;5070191;28;20442;-76
2023/12/08 04:37:43;;;;;;;;;;;;;;;;;;5053529;28;20095;-76
2023/12/08 04:40:09;;;;;;;42.80;17.02;;;;;;;;;;5034455;28;19961;-76
2023/12/08 04:42:36;;;;;;;;;;;;;;;;;;5075187;28;20055;-78
2023/12/08 04:45:02;;;;;;;40.72;17.85;;;;;;;;;;5071441;28;19912;-76
2023/12/08 04:47:27;;;;;;;37.50;15.73;;;;;;;;;;5069113;28;20044;-79
2023/12/08 04:50:11;;;;;;;38.10;16.48;;;;;;;;;;5055091;28;20044;-80
2023/12/08 04:52:37;;;;;;;37.55;15.98;;;;;;;;;;5036882;28;20029;-77
2023/12/08 04:55:04;;;;;;;;;;;;;;;;;;5036224;28;20052;-79
2023/12/08 04:57:30;;;;;;;36.47;14.75;;;;;;;;;;5073032;28;19912;-79
2023/12/08 04:59:55;;;;;;;40.15;15.38;;;;;;;;;;5074512;28;20048;-77
2023/12/08 05:02:21;;;;;;;;;;;;;;;;;;5039632;28;20170;-77
2023/12/08 05:04:46;;;;;;;30.73;12.05;;;;;;;;;;5073585;28;19908;-77
2023/12/08 05:07:11;;;;;;;;;;;;;;;;;;5043935;28;20039;-76
2023/12/08 05:09:37;;;;;;;40.78;15.48;;;;;;;;;;5076503;28;19912;-77
2023/12/08 05:12:02;;;;;;;36.92;18.17;;;;;;;;;;5059222;28;20043;-77
2023/12/08 05:14:28;;;;;;;;;;;;;;;;;;5059262;28;20044;-76
2023/12/08 05:16:53;;;;;;;36.85;16.02;;;;;;;;;;5066824;28;20375;-77
2023/12/08 05:19:18;;;;;;;;;;;;;;;;;;5048562;28;20058;-77
2023/12/08 05:21:44;;;;;;;40.03;16.80;;;;;;;;;;5072702;28;19927;-77
2023/12/08 05:24:09;;;;;;;42.25;17.10;;;;;;;;;;5054314;28;20033;-76
2023/12/08 05:26:35;;;;;;;;;;;;;;;;;;5055254;28;20406;-76
2023/12/08 05:29:00;;;;;;;36.72;16.33;;;;;;;;;;5074107;28;20404;-76
2023/12/08 05:31:25;;;;;;;39.00;18.02;;;;;;;;;;5037837;28;20123;-77
2023/12/08 05:33:51;;;;;;;38.13;16.50;;;;;;;;;;5064202;28;20032;-76
2023/12/08 05:36:17;;;;;;;41.42;17.70;;;;;;;;;;5054282;28;20044;-76
2023/12/08 05:38:42;;;;;;;38.33;17.17;;;;;;;;;;5053888;28;20037;-76
2023/12/08 05:41:08;;;;;;;;;;;;;;;;;;5061984;28;20084;-76
2023/12/08 05:43:33;;;;;;;41.58;19.77;;;;;;;;;;5057975;28;20324;-77
2023/12/08 05:45:59;;;;;;;36.67;15.77;;;;;;;;;;5054166;28;20044;-76
2023/12/08 05:48:24;;;;;;;42.35;19.55;;;;;;;;;;5054036;28;20043;-76
2023/12/08 05:50:50;;;;;;;37.53;16.05;;;;;;;;;;5054156;28;20032;-75
2023/12/08 05:53:15;;;;;;;37.10;16.83;;;;;;;;;;5054091;28;20041;-76
2023/12/08 05:55:41;;;;;;;36.40;18.83;;;;;;;;;;5071836;28;20032;-76
2023/12/08 05:58:06;;;;;;;;;;;;;;;;;;5072099;28;20028;-76
2023/12/08 06:00:33;;;;;;;39.92;17.75;;;;;;;;;;5054034;28;20383;-77
2023/12/08 06:02:58;;;;;;;39.60;16.67;;;;;;;;;;5054358;28;20047;-76
2023/12/08 06:05:23;;;;;;;35.95;17.00;;;;;;;;;;5054082;28;20676;-78
2023/12/08 06:07:49;;;;;;;32.92;16.75;;;;;;;;;;5053720;28;20030;-77
2023/12/08 06:10:14;;;;;;;34.47;16.77;;;;;;;;;;5071999;28;20032;-77
2023/12/08 06:12:40;;;;;;;38.65;16.98;;;;;;;;;;5071460;28;20166;-77
2023/12/08 06:15:05;;;;;;;;;;;;;;;;;;5053696;28;20032;-76
2023/12/08 06:17:31;;;;;;;33.38;14.93;;;;;;;;;;5053681;28;20374;-78
2023/12/08 06:19:56;;;;;;;;;;;;;;;;;;5037062;28;20054;-75
2023/12/08 06:22:22;;;;;;;35.42;15.57;;;;;;;;;;5053504;28;19912;-78
2023/12/08 06:24:47;;;;;;;;;;;;;;;;;;5042373;28;20052;-77
2023/12/08 06:27:13;;;;;;;33.22;15.45;;;;;;;;;;5071084;28;19958;-78
2023/12/08 06:29:38;;;;;;;;;;;;;;;;;;5072948;28;20040;-77
2023/12/08 06:32:04;;;;;;;32.15;15.15;;;;;;;;;;5064851;28;19915;-77
2023/12/08 06:34:29;;;;;;;37.13;17.00;;;;;;;;;;5071114;28;20036;-78
2023/12/08 06:36:55;;;;;;;;;;;;;;;;;;5052553;28;20048;-77
2023/12/08 06:39:20;;;;;;;34.20;15.07;;;;;;;;;;5071487;28;20277;-77
2023/12/08 06:41:46;;;;;;;32.25;15.23;;;;;;;;;;5053161;28;20028;-78
2023/12/08 06:44:11;;;;;;;;;;;;;;;;;;5053618;28;20040;-77
2023/12/08 06:46:37;;;;;;;35.08;16.45;;;;;;;;;;5070586;28;19918;-77
2023/12/08 06:49:02;;;;;;;30.48;15.18;;;;;;;;;;5070591;28;20031;-76
2023/12/08 06:51:27;;;;;;;;;;;;;;;;;;5083594;28;20031;-76
2023/12/08 06:53:53;;;;;;;35.05;15.07;;;;;;;;;;5070843;28;19912;-76
2023/12/08 06:56:21;;;;;;;31.42;15.65;;;;;;;;;;5051602;28;20021;-76
2023/12/08 06:58:46;;;;;;;36.10;16.35;;;;;;;;;;5038790;28;20462;-77
2023/12/08 07:01:11;;;;;;;34.08;15.88;;;;;;;;;;5052678;28;20111;-76
2023/12/08 07:03:37;;;;;;;;;;;;;;;;;;5071086;28;20032;-76
2023/12/08 07:06:03;;;;;;;29.35;13.63;;;;;;;;;;5070767;28;19916;-78
2023/12/08 07:08:28;;;;;;;;;;;;;;;;;;5033266;28;20462;-77
2023/12/08 07:10:53;;;;;;;37.22;16.20;;;;;;;;;;5064803;28;20003;-77
2023/12/08 07:13:20;;;;;;;31.13;14.93;;;;;;;;;;5070342;28;20063;-76
2023/12/08 07:15:46;;;;;;;31.40;14.60;;;;;;;;;;5047354;28;20142;-77
2023/12/08 07:18:11;;;;;;;36.47;16.05;;;;;;;;;;5057198;28;20526;-76
2023/12/08 07:20:36;;;;;;;;;;;;;;;;;;5067647;28;20043;-77
2023/12/08 07:23:02;;;;;;;31.70;14.70;;;;;;;;;;5070613;28;19912;-78
2023/12/08 07:25:27;;;;;;;;;;;;;;;;;;5033888;28;20343;-76
2023/12/08 07:27:53;;;;;;;32.15;14.45;;;;;;;;;;5079534;28;19920;-76
2023/12/08 07:30:18;;;;;;;;;;;;;;;;;;5052697;28;20029;-76
2023/12/08 07:32:43;;;;;;;31.33;14.43;;;;;;;;;;5056262;28;19947;-77
2023/12/08 07:35:09;;;;;;;34.38;16.20;;;;;;;;;;5057734;28;20033;-78
2023/12/08 07:37:37;;;;;;;32.25;14.88;;;;;;;;;;5048097;28;20067;-77
2023/12/08 07:40:05;;;;;;;33.28;15.77;;;;;;;;;;5046030;28;20060;-77
2023/12/08 07:42:30;;;;;;;33.75;14.93;;;;;;;;;;5052136;28;20049;-77
2023/12/08 07:44:56;;;;;;;34.65;15.27;;;;;;;;;;5051342;28;20398;-77
2023/12/08 07:47:21;;;;;;;;;;;;;;;;;;5082825;28;20044;-77
2023/12/08 07:49:46;;;;;;;33.78;14.55;;;;;;;;;;5070423;28;19916;-76
2023/12/08 07:52:13;;;;;;;31.25;15.13;;;;;;;;;;5063417;28;20036;-77
2023/12/08 07:54:39;;;;;;;38.17;16.33;;;;;;;;;;5051880;28;20077;-77
2023/12/08 07:57:04;;;;;;;33.20;14.38;;;;;;;;;;5067139;28;20028;-77
2023/12/08 07:59:29;;;;;;;;;;;;;;;;;;5065566;28;20375;-77
2023/12/08 08:01:55;;;;;;;31.52;15.43;;;;;;;;;;5052007;28;19912;-77
2023/12/08 08:04:20;;;;;;;;;;;;;;;;;;5035482;28;20035;-77
2023/12/08 08:06:46;;;;;;;35.55;14.40;;;;;;;;;;5051841;28;19919;-77
2023/12/08 08:09:11;;;;;;;33.22;14.98;;;;;;;;;;5061074;28;20031;-77
2023/12/08 08:11:37;;;;;;;32.40;15.48;;;;;;;;;;5073832;28;20028;-77
2023/12/08 08:14:02;;;;;;;;;;;;;;;;;;5056203;28;20029;-77
2023/12/08 08:16:27;;;;;;;32.38;15.52;;;;;;;;;;5055694;28;19916;-77
2023/12/08 08:18:53;;;;;;;;;;;;;;;;;;5081397;28;20452;-76
2023/12/08 08:21:19;;;;;;;31.45;15.13;;;;;;;;;;5072421;28;20337;-77
2023/12/08 08:23:44;;;;;;;28.40;14.60;;;;;;;;;;5055583;28;20067;-77
2023/12/08 08:26:10;;;;;;;26.50;13.02;;;;;;;;;;5080293;28;20052;-76
2023/12/08 08:28:35;;;;;;;;;;;;;;;;;;5055995;28;20450;-77
2023/12/08 08:31:01;;;;;;;30.13;14.38;;;;;;;;;;5073719;28;19926;-77
2023/12/08 08:33:26;;;;;;;33.35;15.02;;;;;;;;;;5073740;28;20067;-77
2023/12/08 08:35:51;;;;;;;;;;;;;;;;;;5055777;28;20052;-78
2023/12/08 08:38:17;;;;;;;30.83;15.18;;;;;;;;;;5051374;28;19967;-78
2023/12/08 08:40:42;;;;;;;;;;;;;;;;;;5063352;28;20439;-77
2023/12/08 08:43:08;;;;;;;28.10;13.30;;;;;;;;;;5073270;28;20383;-76
2023/12/08 08:45:33;;;;;;;;;;;;;;;;;;5055681;28;20043;-76
2023/12/08 08:47:58;;;;;;;36.50;14.35;;;;;;;;;;5074077;28;19919;-77
2023/12/08 08:50:24;;;;;;;;;;;;;;;;;;5040481;28;20083;-76
2023/12/08 08:52:49;;;;;;;31.98;14.73;;;;;;;;;;5073194;28;19908;-77
2023/12/08 08:55:15;;;;;;;;;;;;;;;;;;5055478;28;20033;-76
2023/12/08 08:57:40;;;;;;;34.30;16.13;;;;;;;;;;5073142;28;20363;-76
2023/12/08 09:00:09;;;;;;;;;;;;;;;;;;5073185;28;20032;-76
2023/12/08 09:02:34;;;;;;;30.65;15.10;;;;;;;;;;5081376;28;19958;-78
2023/12/08 09:05:00;;;;;;;33.13;14.52;;;;;;;;;;5041515;28;20486;-75
2023/12/08 09:07:25;;;;;;;;;;;;;;;;;;5055748;28;20032;-76
2023/12/08 09:09:51;;;;;;;30.52;14.15;;;;;;;;;;5073159;28;19912;-76
2023/12/08 09:12:16;;;;;;;;;;;;;;;;;;5073948;28;20027;-76
2023/12/08 09:14:42;;;;;;;31.42;14.15;;;;;;;;;;5071309;28;19912;-75
2023/12/08 09:17:07;;;;;;;;;;;;;;;;;;5038077;28;20064;-76
2023/12/08 09:19:32;;;;;;;40.50;17.20;;;;;;;;;;5072618;28;19966;-77
2023/12/08 09:21:58;;;;;;;34.60;15.52;;;;;;;;;;5053220;28;20035;-77
2023/12/08 09:24:25;;;;;;;34.88;14.85;;;;;;;;;;5072910;28;20041;-77
2023/12/08 09:26:52;;;;;;;33.60;15.50;;;;;;;;;;5045495;28;20021;-77
2023/12/08 09:29:17;;;;;;;35.15;16.42;;;;;;;;;;5054443;28;20028;-77
2023/12/08 09:31:43;;;;;;;;;;;;;;;;;;5072614;28;20078;-77
2023/12/08 09:34:08;;;;;;;32.97;14.43;;;;;;;;;;5054108;28;19957;-77
2023/12/08 09:36:34;;;;;;;;;;;;;;;;;;5054854;28;20056;-77
2023/12/08 09:38:59;;;;;;;33.35;14.00;;;;;;;;;;5069617;28;19961;-77
2023/12/08 09:41:24;;;;;;;;;;;;;;;;;;5063701;28;20494;-77
2023/12/08 09:44:04;;;;;;;31.48;14.60;;;;;;;;;;5067001;28;20341;-78
2023/12/08 09:46:30;;;;;;;30.92;14.80;;;;;;;;;;5035297;28;20054;-77
2023/12/08 09:48:55;;;;;;;37.88;17.65;;;;;;;;;;5037153;28;20459;-77
2023/12/08 09:51:21;;;;;;;;;;;;;;;;;;5072630;28;20060;-78
2023/12/08 09:53:46;;;;;;;33.97;14.95;;;;;;;;;;5071971;28;20116;-77
2023/12/08 09:56:12;;;;;;;;;;;;;;;;;;5054547;28;20395;-77
2023/12/08 09:58:37;;;;;;;31.65;13.80;;;;;;;;;;5058659;28;19911;-78
2023/12/08 10:01:03;;;;;;;27.55;12.95;;;;;;;;;;5056484;28;20037;-78
2023/12/08 10:03:28;;;;;;;;;;;;;;;;;;5072325;28;20033;-77
2023/12/08 10:05:55;;;;;;;26.77;13.05;;;;;;;;;;5071746;28;19913;-77
2023/12/08 10:08:20;;;;;;;28.45;15.00;;;;;;;;;;5053961;28;20024;-76
2023/12/08 10:10:46;;;;;;;;;;;;;;;;;;5037873;28;20483;-76
2023/12/08 10:13:12;;;;;;;30.90;14.85;;;;;;;;;;5072157;28;19954;-78
2023/12/08 10:15:40;;;;;;;30.13;13.77;;;;;;;;;;5071625;28;20028;-78
2023/12/08 10:18:06;;;;;;;28.52;13.75;;;;;;;;;;5053924;28;20017;-77
2023/12/08 10:20:31;;;;;;;;;;;;;;;;;;5054145;28;20044;-77
2023/12/08 10:22:56;;;;;;;27.77;13.13;;;;;;;;;;5071645;28;19912;-77
2023/12/08 10:25:22;;;;;;;;;;;;;;;;;;5053911;28;20104;-77
2023/12/08 10:27:50;;;;;;;28.42;14.40;;;;;;;;;;5064121;28;20381;-78
2023/12/08 10:30:15;;;;;;;26.52;13.70;;;;;;;;;;5071059;28;20159;-77
2023/12/08 10:32:42;;;;;;;30.05;13.77;;;;;;;;;;5053722;28;20453;-76
2023/12/08 10:35:07;;;;;;;;;;;;;;;;;;5053610;28;20119;-78
2023/12/08 10:37:33;;;;;;;29.70;13.77;;;;;;;;;;5070809;28;19931;-77
2023/12/08 10:39:58;;;;;;;;;;;;;;;;;;5033742;28;20079;-77
2023/12/08 10:42:24;;;;;;;32.22;14.80;;;;;;;;;;5033257;28;19912;-79
2023/12/08 10:44:49;;;;;;;;;;;;;;;;;;5076067;28;20085;-78
2023/12/08 10:47:15;;;;;;;29.73;13.93;;;;;;;;;;5070081;28;19950;-76
2023/12/08 10:49:41;;;;;;;30.42;14.38;;;;;;;;;;5053216;28;20407;-79
2023/12/08 10:52:06;;;;;;;;;;;;;;;;;;5050587;28;20023;-79
2023/12/08 10:54:31;;;;;;;29.02;13.40;;;;;;;;;;5064066;28;19966;-79
2023/12/08 10:56:57;;;;;;;;;;;;;;;;;;5057099;28;20487;-78
2023/12/08 10:59:24;;;;;;;33.25;13.98;;;;;;;;;;5076420;28;20393;-78
2023/12/08 11:01:49;;;;;;;28.45;14.52;;;;;;;;;;5052779;28;20032;-78
2023/12/08 11:04:14;;;;;;;;;;;;;;;;;;5038748;28;20040;-79
2023/12/08 11:06:42;;;;;;;32.45;14.63;;;;;;;;;;5069340;28;19908;-79
2023/12/08 11:09:07;;;;;;;28.15;13.63;;;;;;;;;;5052682;28;20044;-78
2023/12/08 11:11:32;;;;;;;;;;;;;;;;;;5080070;28;20533;-78
2023/12/08 11:14:05;;;;;;;30.48;13.13;;;;;;;;;;5070601;28;20006;-76
2023/12/08 11:16:31;;;;;;;28.52;12.70;;;;;;;;;;5052753;28;20411;-77
2023/12/08 11:18:56;;;;;;;;;;;;;;;;;;5079768;28;20072;-77
2023/12/08 11:21:22;;;;;;;26.33;12.85;;;;;;;;;;5070412;28;19970;-77
2023/12/08 11:23:47;;;;;;;;;;;;;;;;;;5038312;28;20044;-76
2023/12/08 11:26:19;;;;;;;26.52;12.43;;;;;;;;;;5070388;28;20416;-79
2023/12/08 11:28:48;;;;;;;27.27;13.52;;;;;;;;;;5070093;28;20482;-77
2023/12/08 11:31:18;;;;;;;25.75;12.60;;;;;;;;;;5052778;28;20024;-78
2023/12/08 11:33:52;;;;;;;25.25;11.80;;;;;;;;;;5070717;28;20032;-79
2023/12/08 11:36:20;;;;;;;24.92;11.50;;;;;;;;;;5052469;28;20106;-78
2023/12/08 11:38:46;;;;;;;26.15;12.63;;;;;;;;;;5052398;28;20036;-77
2023/12/08 11:41:12;;;;;;;;;;;;;;;;;;5070830;28;20120;-77
2023/12/08 11:43:37;;;;;;;25.15;11.55;;;;;;;;;;5063452;28;19912;-78
2023/12/08 11:46:03;;;;;;;27.80;13.45;;;;;;;;;;5069847;28;20070;-78
2023/12/08 11:48:28;;;;;;;;;;;;;;;;;;5070481;28;20082;-78
2023/12/08 11:50:53;;;;;;;27.20;12.55;;;;;;;;;;5070104;28;19962;-77
2023/12/08 11:53:19;;;;;;;;;;;;;;;;;;5063303;28;20035;-77
2023/12/08 11:55:44;;;;;;;25.63;12.65;;;;;;;;;;5070296;28;19912;-78
2023/12/08 11:58:11;;;;;;;;;;;;;;;;;;5071184;28;20398;-77
2023/12/08 12:00:39;;;;;;;26.13;12.50;;;;;;;;;;5069781;28;20003;-79
2023/12/08 12:03:05;;;;;;;31.58;14.18;;;;;;;;;;5034817;28;20142;-78
2023/12/08 12:05:31;;;;;;;26.52;11.85;;;;;;;;;;5058955;28;20029;-78
2023/12/08 12:07:56;;;;;;;;;;;;;;;;;;5052390;28;20027;-78
2023/12/08 12:10:23;;;;;;;25.08;11.40;;;;;;;;;;5070139;28;19916;-78
2023/12/08 12:12:51;;;;;;;23.80;12.40;;;;;;;;;;5052175;28;20024;-78
2023/12/08 12:15:20;;;;;;;26.73;12.18;;;;;;;;;;5068200;28;20025;-76
2023/12/08 12:17:46;;;;;;;26.52;12.00;;;;;;;;;;5051710;28;20032;-78
2023/12/08 12:20:12;;;;;;;27.15;12.30;;;;;;;;;;5072162;28;20035;-78
2023/12/08 12:22:37;;;;;;;;;;;;;;;;;;5055380;28;20465;-77
2023/12/08 12:25:02;;;;;;;25.98;12.43;;;;;;;;;;5069603;28;19916;-78
2023/12/08 12:27:28;;;;;;;;;;;;;;;;;;5052026;28;20108;-78
2023/12/08 12:29:53;;;;;;;28.75;11.82;;;;;;;;;;5069553;28;20021;-78
2023/12/08 12:32:18;;;;;;;;;;;;;;;;;;5069965;28;20024;-76
2023/12/08 12:34:44;;;;;;;29.95;13.00;;;;;;;;;;5070449;28;19918;-76
2023/12/08 12:37:11;;;;;;;;;;;;;;;;;;5061895;28;20086;-76
2023/12/08 12:39:36;;;;;;;30.15;13.27;;;;;;;;;;5069584;28;19955;-77
2023/12/08 12:42:01;;;;;;;;;;;;;;;;;;5050924;28;20044;-77
2023/12/08 12:44:43;;;;;;;25.67;11.95;;;;;;;;;;5051573;28;20333;-78
2023/12/08 12:47:11;;;;;;;29.80;12.32;;;;;;;;;;5034058;28;20507;-77
2023/12/08 12:49:40;;;;;;;29.50;13.65;;;;;;;;;;5069400;28;20021;-76
2023/12/08 12:52:22;;;;;;;28.92;12.85;;;;;;;;;;5038156;28;20055;-77
2023/12/08 12:54:47;;;;;;;32.85;13.05;;;;;;;;;;5054828;28;20091;-76
2023/12/08 12:57:16;;;;;;;26.40;12.55;;;;;;;;;;5053978;28;20024;-79
2023/12/08 12:59:53;;;;;;;28.10;12.63;;;;;;;;;;5073646;28;20108;-78
2023/12/08 13:02:26;;;;;;;28.92;12.60;;;;;;;;;;5055533;28;20036;-78
2023/12/08 13:04:52;;;;;;;28.95;14.15;;;;;;;;;;5055447;28;20513;-78
2023/12/08 13:07:18;;;;;;;30.35;13.85;;;;;;;;;;5072751;28;20032;-78
2023/12/08 13:09:44;;;;;;;29.25;13.55;;;;;;;;;;5055458;28;20036;-78
2023/12/08 13:12:10;;;;;;;33.67;13.77;;;;;;;;;;5048280;28;20024;-78
2023/12/08 13:14:35;;;;;;;30.33;14.00;;;;;;;;;;5055202;28;20031;-77
2023/12/08 13:17:01;;;;;;;;;;;;;;;;;;5048281;28;20429;-78
2023/12/08 13:19:26;;;;;;;31.40;13.40;;;;;;;;;;5072712;28;19912;-79
2023/12/08 13:21:52;;;;;;;30.73;13.38;;;;;;;;;;5055212;28;20021;-79
2023/12/08 13:24:17;;;;;;;;;;;;;;;;;;5073282;28;20040;-78
2023/12/08 13:26:42;;;;;;;29.10;11.68;;;;;;;;;;5072408;28;19955;-77
2023/12/08 13:29:08;;;;;;;;;;;;;;;;;;5055157;28;20115;-75
2023/12/08 13:31:33;;;;;;;35.67;13.23;;;;;;;;;;5072139;28;19940;-78
2023/12/08 13:33:58;;;;;;;;;;;;;;;;;;5073022;28;20479;-78
2023/12/08 13:36:24;;;;;;;29.63;12.73;;;;;;;;;;5058782;28;19920;-79
2023/12/08 13:38:49;;;;;;;33.97;14.43;;;;;;;;;;5056054;28;20036;-79
2023/12/08 13:41:15;;;;;;;;;;;;;;;;;;5054729;28;20498;-76
2023/12/08 13:43:40;;;;;;;35.75;13.90;;;;;;;;;;5054823;28;19912;-79
2023/12/08 13:46:05;;;;;;;;;;;;;;;;;;5054701;28;20567;-77
2023/12/08 13:48:31;;;;;;;32.90;13.75;;;;;;;;;;5054519;28;20023;-77
2023/12/08 13:50:56;;;;;;;35.88;15.88;;;;;;;;;;5054359;28;20016;-78
2023/12/08 13:53:22;;;;;;;35.17;14.05;;;;;;;;;;5037577;28;20032;-77
2023/12/08 13:55:47;;;;;;;32.45;14.65;;;;;;;;;;5054598;28;20036;-76
2023/12/08 13:58:13;;;;;;;34.63;13.88;;;;;;;;;;5072496;28;20550;-78
2023/12/08 14:00:38;;;;;;;30.08;13.27;;;;;;;;;;5067532;28;20114;-77
2023/12/08 14:03:29;;;;;;;39.00;15.38;;;;;;;;;;5070677;28;20086;-78
2023/12/08 14:05:55;;;;;;;40.38;16.40;;;;;;;;;;5060043;28;20041;-78
2023/12/08 14:08:20;;;;;;;37.38;15.05;;;;;;;;;;5065735;28;20111;-77
2023/12/08 14:10:46;;;;;;;36.30;14.63;;;;;;;;;;5041061;28;21414;-77
2023/12/08 14:13:12;;;;;;;32.95;14.88;;;;;;;;;;5072025;28;20027;-79
2023/12/08 14:15:37;;;;;;;;;;;;;;;;;;5053918;28;20418;-79
2023/12/08 14:18:03;;;;;;;32.47;13.77;;;;;;;;;;5069456;28;19940;-80
2023/12/08 14:20:28;;;;;;;;;;;;;;;;;;5057461;28;20041;-78
2023/12/08 14:22:54;;;;;;;39.55;15.25;;;;;;;;;;5071645;28;19908;-78
2023/12/08 14:25:19;;;;;;;34.42;15.02;;;;;;;;;;5071226;28;20067;-77
2023/12/08 14:27:45;;;;;;;39.38;15.23;;;;;;;;;;5046309;28;20100;-76
2023/12/08 14:30:10;;;;;;;;;;;;;;;;;;5070541;28;20406;-77
2023/12/08 14:32:36;;;;;;;34.90;14.32;;;;;;;;;;5055289;28;19910;-76
2023/12/08 14:35:02;;;;;;;34.67;14.80;;;;;;;;;;5054628;28;20031;-79
2023/12/08 14:37:28;;;;;;;35.72;15.05;;;;;;;;;;5070217;28;20048;-76
2023/12/08 14:39:53;;;;;;;39.33;14.52;;;;;;;;;;5073320;28;20047;-80
2023/12/08 14:42:19;;;;;;;35.75;15.00;;;;;;;;;;5055551;28;20032;-78
2023/12/08 14:44:44;;;;;;;35.40;15.18;;;;;;;;;;5074099;28;20059;-80